This is the latest recevied weather packets stored in our database for station/object 9W2CEW-1. If no packets are shown the sender has not sent any weather packets the latest 10 day(s).
| Time | Temp. | Humidity | Pressure | Rain* | Wind** | Luminosity | Snow |
|---|---|---|---|---|---|---|---|
| 1777726146 | 32.78° C | 60% | 1003.1 hPa | - | - | - | - |
| 1777725245 | 33.33° C | 59% | 1002.9 hPa | - | - | - | - |
| 1777724421 | 33.33° C | 61% | 1002.6 hPa | - | - | - | - |
| 1777724345 | 33.33° C | 61% | 1002.6 hPa | - | - | - | - |
| 1777723445 | 33.89° C | 57% | 1002.2 hPa | - | - | - | - |
| 1777722593 | 33.33° C | 61% | 1001.9 hPa | - | - | - | - |
| 1777722545 | 33.33° C | 61% | 1001.9 hPa | - | - | - | - |
| 1777721645 | 33.89° C | 57% | 1001.7 hPa | - | - | - | - |
| 1777720745 | 33.89° C | 58% | 1001.4 hPa | - | - | - | - |
| 1777719935 | 35° C | 54% | 1001.2 hPa | - | - | - | - |
| 1777719844 | 35° C | 54% | 1001.2 hPa | - | - | - | - |
| 1777718945 | 34.44° C | 57% | 1001 hPa | - | - | - | - |
| 1777718132 | 33.33° C | 58% | 1001 hPa | - | - | - | - |
| 1777718044 | 33.33° C | 58% | 1001 hPa | - | - | - | - |
| 1777717277 | 33.89° C | 57% | 1000.9 hPa | - | - | - | - |
| 1777717144 | 33.89° C | 57% | 1000.9 hPa | - | - | - | - |
| 1777716244 | 35° C | 55% | 1000.6 hPa | - | - | - | - |
| 1777715346 | 34.44° C | 58% | 1000.6 hPa | - | - | - | - |
| 1777714484 | 35° C | 55% | 1000.5 hPa | - | - | - | - |
| 1777714444 | 35° C | 55% | 1000.5 hPa | - | - | - | - |
| 1777713642 | 34.44° C | 57% | 1000.4 hPa | - | - | - | - |
| 1777713544 | 34.44° C | 57% | 1000.4 hPa | - | - | - | - |
| 1777712644 | 32.22° C | 64% | 1000.5 hPa | - | - | - | - |
| 1777711747 | 31.67° C | 66% | 1000.6 hPa | - | - | - | - |
| 1777710937 | 30° C | 72% | 1000.8 hPa | - | - | - | - |
* Rain since midnight (hover to see other rain measurements)
** Current wind speed in m/s (hover to see current wind gust speed)